ADDS TAF Board (Experimental) INFO

IDs: Format: Expanded Condensed

Updated at: 1428 UTC 02 Oct 2014

KDCA - Washington/National, VA, US

Issued at 1131 UTC 02 Oct 2014
Time1352Z02/15Z02/16Z02/17Z02/18Z02/19Z02/20Z02/21Z02/22Z02/23Z03/00Z03/01Z03/02Z03/03Z
TypeOBSPRVLPRVLPRVLPRVLPRVLPRVLPRVLPRVLPRVLPRVLPRVLPRVLPRVL
VIS10>6>6>6>6>6>6>6>6>6>6>6>6>6
CIG4540404040------------------
CoverOVCBKNBKNBKNBKNSCTSCTSCTSCTSCTSCTSCTSCTSCT
FltCat--VFRVFRVFRVFRVFRVFRVFRVFRVFRVFRVFRVFRVFR
WX----------------------------
WDirVRB60606060909090909090909090
WSpd04444555555555
WGst----------------------------
R01/19
XWndVRB-4-4-4-4-5-5-5-5-5-5-5-5-5
HWndVRB2222-0-0-0-0-0-0-0-0-0
R04/22
XWndVRB-2-2-2-2-4-4-4-4-4-4-4-4-4
HWndVRB3333222222222
R15/33
XWndVRB4444444444444
HWndVRB0000333333333
Raw TAF
KDCA 021131Z 0212/0312 00000KT 6SM HZ FEW024 OVC035
  FM021300 06004KT P6SM SCT010 BKN040
  FM021900 09005KT P6SM SCT050 SCT250
  FM030900 14004KT P6SM SCT008 BKN050


Raw METAR
KDCA 021352Z 00000KT 10SM SCT032 OVC045 19/15 A3015 RMK AO2 SLP210 T01940150

TAF Board Legend

Hazard VFR MVFR IFR LIFR
Visibility (sm) >5 3≤X≤5 1≤X<3 <1
Ceiling (100 ft) >30 10≤X≤30 5≤X<10 <5
Wind Speed (kt) <10 10≤X<20 20≤X<30 ≥30
Wind Gust (kt) <15 15≤X<25 25≤X<35 ≥35
Weather No Wx Reported VCTS,-TS,-FZRA TS,FZRA +TS,+FZRA


Page loaded:  14:28 UTC  |   07:28 AM Pacific  |   08:28 AM Mountain  |   09:28 AM Central  |   10:28 AM Eastern

 

ADVISORIES

FORECASTS

FORECASTS

OBSERVATIONS

USER TOOLS

ABOUT US